sensor_id;sensor_type;location;lat;lon;timestamp;P1;durP1;ratioP1;P2;durP2;ratioP2
21503;SDS011;10913;51.992;9.228;2023-03-23T00:01:10;4.05;;;2.50;;
21503;SDS011;10913;51.992;9.228;2023-03-23T00:03:38;3.25;;;2.00;;
21503;SDS011;10913;51.992;9.228;2023-03-23T00:06:04;2.30;;;2.10;;
21503;SDS011;10913;51.992;9.228;2023-03-23T00:08:33;4.60;;;1.90;;
21503;SDS011;10913;51.992;9.228;2023-03-23T00:11:02;3.80;;;2.40;;
21503;SDS011;10913;51.992;9.228;2023-03-23T00:13:30;3.38;;;2.55;;
21503;SDS011;10913;51.992;9.228;2023-03-23T00:15:57;3.97;;;2.20;;
21503;SDS011;10913;51.992;9.228;2023-03-23T00:18:23;3.85;;;2.42;;
21503;SDS011;10913;51.992;9.228;2023-03-23T00:20:49;3.50;;;2.47;;
21503;SDS011;10913;51.992;9.228;2023-03-23T00:23:17;4.10;;;2.50;;
21503;SDS011;10913;51.992;9.228;2023-03-23T00:25:47;2.40;;;1.98;;
21503;SDS011;10913;51.992;9.228;2023-03-23T00:28:15;4.25;;;2.17;;
21503;SDS011;10913;51.992;9.228;2023-03-23T00:30:41;2.83;;;2.20;;
21503;SDS011;10913;51.992;9.228;2023-03-23T00:33:11;2.70;;;2.15;;
21503;SDS011;10913;51.992;9.228;2023-03-23T00:35:37;3.92;;;2.70;;
21503;SDS011;10913;51.992;9.228;2023-03-23T00:38:04;2.80;;;2.20;;
21503;SDS011;10913;51.992;9.228;2023-03-23T00:40:30;5.75;;;2.75;;
21503;SDS011;10913;51.992;9.228;2023-03-23T00:42:56;3.90;;;2.40;;
21503;SDS011;10913;51.992;9.228;2023-03-23T00:45:21;4.15;;;2.50;;
21503;SDS011;10913;51.992;9.228;2023-03-23T00:47:49;3.35;;;2.20;;
21503;SDS011;10913;51.992;9.228;2023-03-23T00:50:15;3.97;;;2.40;;
21503;SDS011;10913;51.992;9.228;2023-03-23T00:52:42;3.85;;;2.25;;
21503;SDS011;10913;51.992;9.228;2023-03-23T00:55:08;4.45;;;2.40;;
21503;SDS011;10913;51.992;9.228;2023-03-23T00:57:34;3.65;;;2.50;;
21503;SDS011;10913;51.992;9.228;2023-03-23T01:00:00;3.13;;;1.90;;
21503;SDS011;10913;51.992;9.228;2023-03-23T01:02:25;4.03;;;2.33;;
21503;SDS011;10913;51.992;9.228;2023-03-23T01:04:51;3.25;;;1.88;;
21503;SDS011;10913;51.992;9.228;2023-03-23T01:07:20;3.28;;;2.30;;
21503;SDS011;10913;51.992;9.228;2023-03-23T01:09:48;3.25;;;2.22;;
21503;SDS011;10913;51.992;9.228;2023-03-23T01:12:13;3.30;;;2.50;;
21503;SDS011;10913;51.992;9.228;2023-03-23T01:14:39;5.28;;;2.40;;
21503;SDS011;10913;51.992;9.228;2023-03-23T01:17:06;3.97;;;2.25;;
21503;SDS011;10913;51.992;9.228;2023-03-23T01:19:31;4.45;;;2.30;;
21503;SDS011;10913;51.992;9.228;2023-03-23T01:21:56;3.92;;;2.30;;
21503;SDS011;10913;51.992;9.228;2023-03-23T01:24:22;3.53;;;2.65;;
21503;SDS011;10913;51.992;9.228;2023-03-23T01:26:47;2.95;;;2.50;;
21503;SDS011;10913;51.992;9.228;2023-03-23T01:29:12;4.40;;;2.53;;
21503;SDS011;10913;51.992;9.228;2023-03-23T01:31:38;4.47;;;2.55;;
21503;SDS011;10913;51.992;9.228;2023-03-23T01:34:04;5.72;;;2.50;;
21503;SDS011;10913;51.992;9.228;2023-03-23T01:36:30;4.72;;;2.80;;
21503;SDS011;10913;51.992;9.228;2023-03-23T01:38:58;7.20;;;3.20;;
21503;SDS011;10913;51.992;9.228;2023-03-23T01:41:25;3.28;;;2.35;;
21503;SDS011;10913;51.992;9.228;2023-03-23T01:46:26;2.92;;;2.58;;
21503;SDS011;10913;51.992;9.228;2023-03-23T01:48:53;3.67;;;2.30;;
21503;SDS011;10913;51.992;9.228;2023-03-23T01:51:22;4.88;;;2.60;;
21503;SDS011;10913;51.992;9.228;2023-03-23T01:53:52;4.20;;;2.42;;
21503;SDS011;10913;51.992;9.228;2023-03-23T01:56:22;3.13;;;2.30;;
21503;SDS011;10913;51.992;9.228;2023-03-23T01:58:52;3.75;;;2.38;;
21503;SDS011;10913;51.992;9.228;2023-03-23T02:01:20;4.18;;;2.47;;
21503;SDS011;10913;51.992;9.228;2023-03-23T02:03:52;3.75;;;2.30;;
21503;SDS011;10913;51.992;9.228;2023-03-23T02:06:21;3.20;;;2.30;;
21503;SDS011;10913;51.992;9.228;2023-03-23T02:08:47;4.63;;;2.53;;
21503;SDS011;10913;51.992;9.228;2023-03-23T02:11:15;2.58;;;2.20;;
21503;SDS011;10913;51.992;9.228;2023-03-23T02:13:43;3.05;;;2.30;;
21503;SDS011;10913;51.992;9.228;2023-03-23T02:18:43;2.83;;;2.47;;
21503;SDS011;10913;51.992;9.228;2023-03-23T02:27:17;3.67;;;2.65;;
21503;SDS011;10913;51.992;9.228;2023-03-23T02:35:30;3.00;;;2.70;;
21503;SDS011;10913;51.992;9.228;2023-03-23T02:38:11;4.55;;;3.10;;
21503;SDS011;10913;51.992;9.228;2023-03-23T02:40:56;6.10;;;2.83;;
21503;SDS011;10913;51.992;9.228;2023-03-23T02:43:27;4.32;;;2.80;;
21503;SDS011;10913;51.992;9.228;2023-03-23T02:45:56;3.72;;;2.92;;
21503;SDS011;10913;51.992;9.228;2023-03-23T02:48:24;4.53;;;2.72;;
21503;SDS011;10913;51.992;9.228;2023-03-23T02:50:54;4.47;;;2.72;;
21503;SDS011;10913;51.992;9.228;2023-03-23T02:53:21;3.53;;;2.60;;
21503;SDS011;10913;51.992;9.228;2023-03-23T02:55:49;4.20;;;3.03;;
21503;SDS011;10913;51.992;9.228;2023-03-23T02:58:17;3.72;;;2.85;;
21503;SDS011;10913;51.992;9.228;2023-03-23T03:00:44;4.63;;;2.80;;
21503;SDS011;10913;51.992;9.228;2023-03-23T03:03:14;3.28;;;2.90;;
21503;SDS011;10913;51.992;9.228;2023-03-23T03:11:13;4.43;;;3.22;;
21503;SDS011;10913;51.992;9.228;2023-03-23T03:13:45;3.45;;;2.90;;
21503;SDS011;10913;51.992;9.228;2023-03-23T03:16:31;5.85;;;3.15;;
21503;SDS011;10913;51.992;9.228;2023-03-23T03:21:44;4.28;;;3.03;;
21503;SDS011;10913;51.992;9.228;2023-03-23T03:24:12;4.47;;;2.85;;
21503;SDS011;10913;51.992;9.228;2023-03-23T03:26:42;4.63;;;3.10;;
21503;SDS011;10913;51.992;9.228;2023-03-23T03:29:13;4.68;;;2.75;;
21503;SDS011;10913;51.992;9.228;2023-03-23T03:31:43;4.57;;;2.80;;
21503;SDS011;10913;51.992;9.228;2023-03-23T03:34:11;5.55;;;2.90;;
21503;SDS011;10913;51.992;9.228;2023-03-23T03:36:43;4.22;;;3.00;;
21503;SDS011;10913;51.992;9.228;2023-03-23T03:39:10;3.25;;;2.90;;
21503;SDS011;10913;51.992;9.228;2023-03-23T03:41:39;3.08;;;2.30;;
21503;SDS011;10913;51.992;9.228;2023-03-23T03:44:06;2.50;;;2.28;;
21503;SDS011;10913;51.992;9.228;2023-03-23T03:46:32;3.42;;;2.50;;
21503;SDS011;10913;51.992;9.228;2023-03-23T03:49:01;3.35;;;2.30;;
21503;SDS011;10913;51.992;9.228;2023-03-23T03:51:29;4.43;;;2.50;;
21503;SDS011;10913;51.992;9.228;2023-03-23T03:53:56;4.25;;;2.72;;
21503;SDS011;10913;51.992;9.228;2023-03-23T03:56:22;3.67;;;2.40;;
21503;SDS011;10913;51.992;9.228;2023-03-23T03:58:48;4.38;;;2.30;;
21503;SDS011;10913;51.992;9.228;2023-03-23T04:01:15;4.25;;;2.33;;
21503;SDS011;10913;51.992;9.228;2023-03-23T04:03:43;3.25;;;1.90;;
21503;SDS011;10913;51.992;9.228;2023-03-23T04:06:09;4.63;;;2.20;;
21503;SDS011;10913;51.992;9.228;2023-03-23T04:08:37;2.55;;;2.03;;
21503;SDS011;10913;51.992;9.228;2023-03-23T04:11:03;2.10;;;1.90;;
21503;SDS011;10913;51.992;9.228;2023-03-23T04:13:29;4.28;;;2.30;;
21503;SDS011;10913;51.992;9.228;2023-03-23T04:15:55;2.65;;;1.90;;
21503;SDS011;10913;51.992;9.228;2023-03-23T04:18:20;2.80;;;2.20;;
21503;SDS011;10913;51.992;9.228;2023-03-23T04:20:46;3.90;;;2.33;;
21503;SDS011;10913;51.992;9.228;2023-03-23T04:23:17;4.80;;;2.00;;
21503;SDS011;10913;51.992;9.228;2023-03-23T04:25:48;3.78;;;2.10;;
21503;SDS011;10913;51.992;9.228;2023-03-23T04:28:15;2.63;;;1.83;;
21503;SDS011;10913;51.992;9.228;2023-03-23T04:30:48;2.67;;;1.90;;
21503;SDS011;10913;51.992;9.228;2023-03-23T04:33:17;2.30;;;1.60;;
21503;SDS011;10913;51.992;9.228;2023-03-23T04:35:43;1.73;;;1.50;;
21503;SDS011;10913;51.992;9.228;2023-03-23T04:38:10;2.00;;;1.60;;
21503;SDS011;10913;51.992;9.228;2023-03-23T04:40:37;2.78;;;1.77;;
21503;SDS011;10913;51.992;9.228;2023-03-23T04:43:04;2.80;;;1.90;;
21503;SDS011;10913;51.992;9.228;2023-03-23T04:45:31;1.80;;;1.60;;
21503;SDS011;10913;51.992;9.228;2023-03-23T04:47:58;1.95;;;1.50;;
21503;SDS011;10913;51.992;9.228;2023-03-23T04:50:27;2.63;;;1.60;;
21503;SDS011;10913;51.992;9.228;2023-03-23T04:52:55;1.90;;;1.73;;
21503;SDS011;10913;51.992;9.228;2023-03-23T04:55:22;2.30;;;1.52;;
21503;SDS011;10913;51.992;9.228;2023-03-23T04:57:49;1.98;;;1.40;;
21503;SDS011;10913;51.992;9.228;2023-03-23T05:00:15;2.33;;;1.48;;
21503;SDS011;10913;51.992;9.228;2023-03-23T05:02:45;1.50;;;1.40;;
21503;SDS011;10913;51.992;9.228;2023-03-23T05:05:17;1.75;;;1.40;;
21503;SDS011;10913;51.992;9.228;2023-03-23T05:07:44;2.15;;;1.40;;
21503;SDS011;10913;51.992;9.228;2023-03-23T05:10:10;2.50;;;1.60;;
21503;SDS011;10913;51.992;9.228;2023-03-23T05:12:37;1.40;;;1.30;;
21503;SDS011;10913;51.992;9.228;2023-03-23T05:15:03;1.38;;;1.27;;
21503;SDS011;10913;51.992;9.228;2023-03-23T05:17:30;2.47;;;1.50;;
21503;SDS011;10913;51.992;9.228;2023-03-23T05:19:57;2.00;;;1.38;;
21503;SDS011;10913;51.992;9.228;2023-03-23T05:22:23;2.42;;;1.58;;
21503;SDS011;10913;51.992;9.228;2023-03-23T05:24:51;1.40;;;1.30;;
21503;SDS011;10913;51.992;9.228;2023-03-23T05:27:17;2.00;;;1.48;;
21503;SDS011;10913;51.992;9.228;2023-03-23T05:29:44;1.83;;;1.40;;
21503;SDS011;10913;51.992;9.228;2023-03-23T05:32:13;2.03;;;1.50;;
21503;SDS011;10913;51.992;9.228;2023-03-23T05:34:39;1.50;;;1.40;;
21503;SDS011;10913;51.992;9.228;2023-03-23T05:37:05;1.80;;;1.33;;
21503;SDS011;10913;51.992;9.228;2023-03-23T05:39:31;2.05;;;1.60;;
21503;SDS011;10913;51.992;9.228;2023-03-23T05:41:57;2.17;;;1.60;;
21503;SDS011;10913;51.992;9.228;2023-03-23T05:44:23;2.40;;;1.50;;
21503;SDS011;10913;51.992;9.228;2023-03-23T05:46:49;2.35;;;1.60;;
21503;SDS011;10913;51.992;9.228;2023-03-23T05:49:15;1.70;;;1.58;;
21503;SDS011;10913;51.992;9.228;2023-03-23T05:51:41;2.63;;;1.73;;
21503;SDS011;10913;51.992;9.228;2023-03-23T05:54:08;1.60;;;1.50;;
21503;SDS011;10913;51.992;9.228;2023-03-23T05:56:35;2.22;;;1.70;;
21503;SDS011;10913;51.992;9.228;2023-03-23T05:59:01;2.05;;;1.73;;
21503;SDS011;10913;51.992;9.228;2023-03-23T06:01:27;2.15;;;1.58;;
21503;SDS011;10913;51.992;9.228;2023-03-23T06:03:53;1.75;;;1.40;;
21503;SDS011;10913;51.992;9.228;2023-03-23T06:06:19;3.65;;;1.70;;
21503;SDS011;10913;51.992;9.228;2023-03-23T06:08:45;1.92;;;1.70;;
21503;SDS011;10913;51.992;9.228;2023-03-23T06:11:13;1.88;;;1.65;;
21503;SDS011;10913;51.992;9.228;2023-03-23T06:13:39;2.22;;;1.65;;
21503;SDS011;10913;51.992;9.228;2023-03-23T06:16:04;2.33;;;1.88;;
21503;SDS011;10913;51.992;9.228;2023-03-23T06:18:30;2.25;;;1.70;;
21503;SDS011;10913;51.992;9.228;2023-03-23T06:20:58;1.70;;;1.60;;
21503;SDS011;10913;51.992;9.228;2023-03-23T06:23:25;1.70;;;1.58;;
21503;SDS011;10913;51.992;9.228;2023-03-23T06:25:54;1.70;;;1.55;;
21503;SDS011;10913;51.992;9.228;2023-03-23T06:28:22;2.53;;;1.77;;
21503;SDS011;10913;51.992;9.228;2023-03-23T06:30:47;2.45;;;1.50;;
21503;SDS011;10913;51.992;9.228;2023-03-23T06:33:13;1.73;;;1.50;;
21503;SDS011;10913;51.992;9.228;2023-03-23T06:35:38;2.10;;;1.50;;
21503;SDS011;10913;51.992;9.228;2023-03-23T06:38:04;2.03;;;1.60;;
21503;SDS011;10913;51.992;9.228;2023-03-23T06:40:29;2.40;;;1.60;;
21503;SDS011;10913;51.992;9.228;2023-03-23T06:42:58;1.70;;;1.60;;
21503;SDS011;10913;51.992;9.228;2023-03-23T06:45:26;2.03;;;1.80;;
21503;SDS011;10913;51.992;9.228;2023-03-23T06:47:52;2.30;;;1.63;;
21503;SDS011;10913;51.992;9.228;2023-03-23T06:50:17;1.58;;;1.48;;
21503;SDS011;10913;51.992;9.228;2023-03-23T06:52:46;1.80;;;1.70;;
21503;SDS011;10913;51.992;9.228;2023-03-23T06:55:13;1.70;;;1.55;;
21503;SDS011;10913;51.992;9.228;2023-03-23T06:57:39;1.80;;;1.70;;
21503;SDS011;10913;51.992;9.228;2023-03-23T07:00:06;2.10;;;1.80;;
21503;SDS011;10913;51.992;9.228;2023-03-23T07:02:34;1.70;;;1.60;;
21503;SDS011;10913;51.992;9.228;2023-03-23T07:05:00;1.52;;;1.42;;
21503;SDS011;10913;51.992;9.228;2023-03-23T07:07:26;2.10;;;1.90;;
21503;SDS011;10913;51.992;9.228;2023-03-23T07:09:51;2.53;;;1.77;;
21503;SDS011;10913;51.992;9.228;2023-03-23T07:12:16;2.85;;;1.90;;
21503;SDS011;10913;51.992;9.228;2023-03-23T07:14:42;1.70;;;1.60;;
21503;SDS011;10913;51.992;9.228;2023-03-23T07:17:07;2.17;;;1.60;;
21503;SDS011;10913;51.992;9.228;2023-03-23T07:19:33;1.70;;;1.60;;
21503;SDS011;10913;51.992;9.228;2023-03-23T07:21:58;1.92;;;1.75;;
21503;SDS011;10913;51.992;9.228;2023-03-23T07:24:24;1.83;;;1.40;;
21503;SDS011;10913;51.992;9.228;2023-03-23T07:26:49;2.40;;;1.60;;
21503;SDS011;10913;51.992;9.228;2023-03-23T07:29:15;2.15;;;1.70;;
21503;SDS011;10913;51.992;9.228;2023-03-23T07:31:41;2.15;;;1.65;;
21503;SDS011;10913;51.992;9.228;2023-03-23T07:34:07;2.35;;;1.50;;
21503;SDS011;10913;51.992;9.228;2023-03-23T07:36:33;2.33;;;1.98;;
21503;SDS011;10913;51.992;9.228;2023-03-23T07:39:02;3.28;;;1.70;;
21503;SDS011;10913;51.992;9.228;2023-03-23T07:41:30;1.95;;;1.60;;
21503;SDS011;10913;51.992;9.228;2023-03-23T07:43:56;3.30;;;1.80;;
21503;SDS011;10913;51.992;9.228;2023-03-23T07:46:22;2.92;;;1.85;;
21503;SDS011;10913;51.992;9.228;2023-03-23T07:48:47;2.00;;;1.70;;
21503;SDS011;10913;51.992;9.228;2023-03-23T07:51:14;3.17;;;2.00;;
21503;SDS011;10913;51.992;9.228;2023-03-23T07:53:41;2.45;;;1.70;;
21503;SDS011;10913;51.992;9.228;2023-03-23T07:56:09;2.75;;;2.00;;
21503;SDS011;10913;51.992;9.228;2023-03-23T07:58:36;2.55;;;1.70;;
21503;SDS011;10913;51.992;9.228;2023-03-23T08:01:02;2.78;;;1.63;;
21503;SDS011;10913;51.992;9.228;2023-03-23T08:03:27;2.17;;;1.75;;
21503;SDS011;10913;51.992;9.228;2023-03-23T08:05:53;4.03;;;1.98;;
21503;SDS011;10913;51.992;9.228;2023-03-23T08:08:22;3.97;;;1.98;;
21503;SDS011;10913;51.992;9.228;2023-03-23T08:10:48;2.63;;;1.95;;
21503;SDS011;10913;51.992;9.228;2023-03-23T08:13:14;4.13;;;2.20;;
21503;SDS011;10913;51.992;9.228;2023-03-23T08:15:39;4.03;;;2.13;;
21503;SDS011;10913;51.992;9.228;2023-03-23T08:18:04;3.35;;;1.92;;
21503;SDS011;10913;51.992;9.228;2023-03-23T08:20:30;3.45;;;1.88;;
21503;SDS011;10913;51.992;9.228;2023-03-23T08:22:56;3.78;;;1.88;;
21503;SDS011;10913;51.992;9.228;2023-03-23T08:25:23;3.95;;;2.17;;
21503;SDS011;10913;51.992;9.228;2023-03-23T08:27:50;3.78;;;2.20;;
21503;SDS011;10913;51.992;9.228;2023-03-23T08:30:17;4.63;;;2.30;;
21503;SDS011;10913;51.992;9.228;2023-03-23T08:32:51;3.28;;;1.88;;
21503;SDS011;10913;51.992;9.228;2023-03-23T08:35:18;5.68;;;2.20;;
21503;SDS011;10913;51.992;9.228;2023-03-23T08:37:44;3.90;;;2.22;;
21503;SDS011;10913;51.992;9.228;2023-03-23T08:40:12;3.88;;;2.17;;
21503;SDS011;10913;51.992;9.228;2023-03-23T08:42:40;4.45;;;2.40;;
21503;SDS011;10913;51.992;9.228;2023-03-23T08:45:08;3.70;;;2.03;;
21503;SDS011;10913;51.992;9.228;2023-03-23T08:47:35;4.13;;;2.10;;
21503;SDS011;10913;51.992;9.228;2023-03-23T08:50:03;6.82;;;2.30;;
21503;SDS011;10913;51.992;9.228;2023-03-23T08:52:29;4.32;;;2.17;;
21503;SDS011;10913;51.992;9.228;2023-03-23T08:54:55;4.65;;;2.10;;
21503;SDS011;10913;51.992;9.228;2023-03-23T08:57:22;4.15;;;2.00;;
21503;SDS011;10913;51.992;9.228;2023-03-23T08:59:48;4.95;;;2.17;;
21503;SDS011;10913;51.992;9.228;2023-03-23T09:02:13;5.90;;;2.13;;
21503;SDS011;10913;51.992;9.228;2023-03-23T09:04:39;3.75;;;2.15;;
21503;SDS011;10913;51.992;9.228;2023-03-23T09:07:08;7.93;;;2.13;;
21503;SDS011;10913;51.992;9.228;2023-03-23T09:09:36;5.35;;;2.00;;
21503;SDS011;10913;51.992;9.228;2023-03-23T09:12:02;3.75;;;2.17;;
21503;SDS011;10913;51.992;9.228;2023-03-23T09:14:28;5.55;;;2.60;;
21503;SDS011;10913;51.992;9.228;2023-03-23T09:16:53;3.15;;;1.98;;
21503;SDS011;10913;51.992;9.228;2023-03-23T09:19:19;4.22;;;2.13;;
21503;SDS011;10913;51.992;9.228;2023-03-23T09:21:45;5.75;;;2.10;;
21503;SDS011;10913;51.992;9.228;2023-03-23T09:24:10;4.82;;;1.90;;
21503;SDS011;10913;51.992;9.228;2023-03-23T09:26:36;3.53;;;1.90;;
21503;SDS011;10913;51.992;9.228;2023-03-23T09:29:01;4.88;;;2.13;;
21503;SDS011;10913;51.992;9.228;2023-03-23T09:31:27;6.07;;;2.13;;
21503;SDS011;10913;51.992;9.228;2023-03-23T09:33:53;5.18;;;2.20;;
21503;SDS011;10913;51.992;9.228;2023-03-23T09:36:21;6.25;;;2.33;;
21503;SDS011;10913;51.992;9.228;2023-03-23T09:38:48;3.92;;;2.05;;
21503;SDS011;10913;51.992;9.228;2023-03-23T09:49:52;5.85;;;2.10;;
21503;SDS011;10913;51.992;9.228;2023-03-23T09:52:22;6.40;;;2.20;;
21503;SDS011;10913;51.992;9.228;2023-03-23T09:54:51;4.47;;;2.17;;
21503;SDS011;10913;51.992;9.228;2023-03-23T09:57:33;5.30;;;1.90;;
21503;SDS011;10913;51.992;9.228;2023-03-23T10:00:12;5.30;;;2.00;;
21503;SDS011;10913;51.992;9.228;2023-03-23T10:02:49;3.33;;;2.10;;
21503;SDS011;10913;51.992;9.228;2023-03-23T10:05:40;5.00;;;1.90;;
21503;SDS011;10913;51.992;9.228;2023-03-23T10:08:26;4.65;;;1.90;;
21503;SDS011;10913;51.992;9.228;2023-03-23T10:16:49;4.18;;;1.85;;
21503;SDS011;10913;51.992;9.228;2023-03-23T10:19:24;3.85;;;2.05;;
21503;SDS011;10913;51.992;9.228;2023-03-23T10:21:59;3.55;;;1.80;;
21503;SDS011;10913;51.992;9.228;2023-03-23T10:25:14;3.80;;;1.95;;
21503;SDS011;10913;51.992;9.228;2023-03-23T10:27:51;5.85;;;2.08;;
21503;SDS011;10913;51.992;9.228;2023-03-23T10:30:27;3.95;;;2.10;;
21503;SDS011;10913;51.992;9.228;2023-03-23T10:33:02;4.93;;;2.08;;
21503;SDS011;10913;51.992;9.228;2023-03-23T10:35:36;6.00;;;2.10;;
21503;SDS011;10913;51.992;9.228;2023-03-23T10:38:13;6.47;;;2.00;;
21503;SDS011;10913;51.992;9.228;2023-03-23T10:41:01;3.80;;;1.88;;
21503;SDS011;10913;51.992;9.228;2023-03-23T10:43:30;5.75;;;2.00;;
21503;SDS011;10913;51.992;9.228;2023-03-23T10:45:57;4.47;;;1.88;;
21503;SDS011;10913;51.992;9.228;2023-03-23T10:48:29;3.58;;;1.92;;
21503;SDS011;10913;51.992;9.228;2023-03-23T10:50:57;5.80;;;2.20;;
21503;SDS011;10913;51.992;9.228;2023-03-23T10:53:42;4.55;;;2.08;;
21503;SDS011;10913;51.992;9.228;2023-03-23T10:56:35;5.35;;;2.28;;
21503;SDS011;10913;51.992;9.228;2023-03-23T10:59:10;5.30;;;2.20;;
21503;SDS011;10913;51.992;9.228;2023-03-23T11:01:37;5.45;;;2.10;;
21503;SDS011;10913;51.992;9.228;2023-03-23T11:04:03;4.18;;;2.00;;
21503;SDS011;10913;51.992;9.228;2023-03-23T11:06:37;5.03;;;1.90;;
21503;SDS011;10913;51.992;9.228;2023-03-23T11:09:15;6.35;;;1.88;;
21503;SDS011;10913;51.992;9.228;2023-03-23T11:11:43;5.75;;;2.03;;
21503;SDS011;10913;51.992;9.228;2023-03-23T11:19:26;5.15;;;1.90;;
21503;SDS011;10913;51.992;9.228;2023-03-23T11:21:53;4.88;;;2.25;;
21503;SDS011;10913;51.992;9.228;2023-03-23T11:24:43;4.07;;;2.17;;
21503;SDS011;10913;51.992;9.228;2023-03-23T11:27:11;3.22;;;1.98;;
21503;SDS011;10913;51.992;9.228;2023-03-23T11:32:36;4.90;;;2.00;;
21503;SDS011;10913;51.992;9.228;2023-03-23T11:35:06;5.13;;;2.20;;
21503;SDS011;10913;51.992;9.228;2023-03-23T11:37:42;3.83;;;2.10;;
21503;SDS011;10913;51.992;9.228;2023-03-23T11:40:19;4.60;;;1.65;;
21503;SDS011;10913;51.992;9.228;2023-03-23T11:47:47;5.03;;;2.20;;
21503;SDS011;10913;51.992;9.228;2023-03-23T11:50:18;8.10;;;2.40;;
21503;SDS011;10913;51.992;9.228;2023-03-23T11:55:33;9.25;;;2.40;;
21503;SDS011;10913;51.992;9.228;2023-03-23T11:58:19;6.43;;;2.20;;
21503;SDS011;10913;51.992;9.228;2023-03-23T12:00:55;9.38;;;2.40;;
21503;SDS011;10913;51.992;9.228;2023-03-23T12:06:06;5.43;;;2.13;;
21503;SDS011;10913;51.992;9.228;2023-03-23T12:44:43;0.98;;;0.82;;
21503;SDS011;10913;51.992;9.228;2023-03-23T12:47:24;1.70;;;0.93;;
21503;SDS011;10913;51.992;9.228;2023-03-23T12:49:58;1.17;;;0.90;;
21503;SDS011;10913;51.992;9.228;2023-03-23T12:55:17;1.95;;;0.90;;
21503;SDS011;10913;51.992;9.228;2023-03-23T13:00:33;1.42;;;0.70;;
21503;SDS011;10913;51.992;9.228;2023-03-23T13:05:50;2.10;;;1.00;;
21503;SDS011;10913;51.992;9.228;2023-03-23T13:08:30;0.82;;;0.60;;
21503;SDS011;10913;51.992;9.228;2023-03-23T13:11:03;1.30;;;0.90;;
21503;SDS011;10913;51.992;9.228;2023-03-23T13:13:55;1.55;;;0.90;;
21503;SDS011;10913;51.992;9.228;2023-03-23T13:24:38;2.53;;;0.98;;
21503;SDS011;10913;51.992;9.228;2023-03-23T13:27:15;2.10;;;0.90;;
21503;SDS011;10913;51.992;9.228;2023-03-23T13:29:45;2.70;;;0.98;;
21503;SDS011;10913;51.992;9.228;2023-03-23T13:32:12;0.98;;;0.88;;
21503;SDS011;10913;51.992;9.228;2023-03-23T13:34:41;2.60;;;1.10;;
21503;SDS011;10913;51.992;9.228;2023-03-23T13:37:12;2.58;;;0.80;;
21503;SDS011;10913;51.992;9.228;2023-03-23T13:39:53;2.25;;;1.02;;
21503;SDS011;10913;51.992;9.228;2023-03-23T13:42:25;3.92;;;2.00;;
21503;SDS011;10913;51.992;9.228;2023-03-23T13:57:57;1.90;;;1.20;;
21503;SDS011;10913;51.992;9.228;2023-03-23T14:05:35;2.10;;;1.13;;
21503;SDS011;10913;51.992;9.228;2023-03-23T14:15:30;2.38;;;1.25;;
21503;SDS011;10913;51.992;9.228;2023-03-23T14:18:03;1.25;;;1.10;;
21503;SDS011;10913;51.992;9.228;2023-03-23T14:20:31;2.88;;;2.40;;
21503;SDS011;10913;51.992;9.228;2023-03-23T14:22:59;2.85;;;1.85;;
21503;SDS011;10913;51.992;9.228;2023-03-23T14:25:31;2.05;;;1.55;;
21503;SDS011;10913;51.992;9.228;2023-03-23T14:27:57;3.08;;;1.67;;
21503;SDS011;10913;51.992;9.228;2023-03-23T14:30:24;1.90;;;1.50;;
21503;SDS011;10913;51.992;9.228;2023-03-23T14:32:51;2.88;;;1.50;;
21503;SDS011;10913;51.992;9.228;2023-03-23T14:35:32;1.30;;;1.20;;
21503;SDS011;10913;51.992;9.228;2023-03-23T14:38:00;3.88;;;2.05;;
21503;SDS011;10913;51.992;9.228;2023-03-23T14:40:26;2.75;;;1.90;;
21503;SDS011;10913;51.992;9.228;2023-03-23T14:42:53;3.55;;;2.03;;
21503;SDS011;10913;51.992;9.228;2023-03-23T14:45:20;3.28;;;2.15;;
21503;SDS011;10913;51.992;9.228;2023-03-23T14:50:37;2.10;;;1.67;;
21503;SDS011;10913;51.992;9.228;2023-03-23T14:55:59;4.22;;;1.80;;
21503;SDS011;10913;51.992;9.228;2023-03-23T14:58:34;2.75;;;1.88;;
21503;SDS011;10913;51.992;9.228;2023-03-23T15:01:01;3.65;;;2.30;;
21503;SDS011;10913;51.992;9.228;2023-03-23T15:03:35;4.47;;;2.60;;
21503;SDS011;10913;51.992;9.228;2023-03-23T15:06:05;8.98;;;4.63;;
21503;SDS011;10913;51.992;9.228;2023-03-23T15:08:37;4.57;;;2.80;;
21503;SDS011;10913;51.992;9.228;2023-03-23T15:11:13;3.95;;;2.47;;
21503;SDS011;10913;51.992;9.228;2023-03-23T15:13:52;2.95;;;2.05;;
21503;SDS011;10913;51.992;9.228;2023-03-23T15:16:29;2.42;;;1.77;;
21503;SDS011;10913;51.992;9.228;2023-03-23T15:18:58;3.50;;;2.10;;
21503;SDS011;10913;51.992;9.228;2023-03-23T15:21:29;1.70;;;1.60;;
21503;SDS011;10913;51.992;9.228;2023-03-23T15:23:57;2.40;;;1.92;;
21503;SDS011;10913;51.992;9.228;2023-03-23T15:29:09;4.47;;;2.08;;
21503;SDS011;10913;51.992;9.228;2023-03-23T15:31:39;2.80;;;2.10;;
21503;SDS011;10913;51.992;9.228;2023-03-23T15:34:10;3.30;;;1.95;;
21503;SDS011;10913;51.992;9.228;2023-03-23T15:36:40;3.03;;;1.80;;
21503;SDS011;10913;51.992;9.228;2023-03-23T15:39:06;2.78;;;2.10;;
21503;SDS011;10913;51.992;9.228;2023-03-23T15:41:44;2.88;;;2.38;;
21503;SDS011;10913;51.992;9.228;2023-03-23T15:44:12;2.38;;;2.15;;
21503;SDS011;10913;51.992;9.228;2023-03-23T15:46:49;3.90;;;2.10;;
21503;SDS011;10913;51.992;9.228;2023-03-23T15:49:16;3.63;;;1.90;;
21503;SDS011;10913;51.992;9.228;2023-03-23T15:51:42;2.63;;;2.03;;
21503;SDS011;10913;51.992;9.228;2023-03-23T15:54:09;3.08;;;1.80;;
21503;SDS011;10913;51.992;9.228;2023-03-23T15:56:39;3.80;;;1.90;;
21503;SDS011;10913;51.992;9.228;2023-03-23T15:59:05;5.38;;;1.98;;
21503;SDS011;10913;51.992;9.228;2023-03-23T16:01:31;3.40;;;1.80;;
21503;SDS011;10913;51.992;9.228;2023-03-23T16:04:13;2.10;;;1.60;;
21503;SDS011;10913;51.992;9.228;2023-03-23T16:06:41;2.58;;;1.50;;
21503;SDS011;10913;51.992;9.228;2023-03-23T16:09:10;3.50;;;2.00;;
21503;SDS011;10913;51.992;9.228;2023-03-23T16:11:41;3.37;;;1.87;;
21503;SDS011;10913;51.992;9.228;2023-03-23T16:14:06;4.63;;;1.92;;
21503;SDS011;10913;51.992;9.228;2023-03-23T16:19:11;4.22;;;2.22;;
21503;SDS011;10913;51.992;9.228;2023-03-23T16:21:38;3.70;;;2.08;;
21503;SDS011;10913;51.992;9.228;2023-03-23T16:24:03;3.35;;;1.75;;
21503;SDS011;10913;51.992;9.228;2023-03-23T16:26:29;4.93;;;2.28;;
21503;SDS011;10913;51.992;9.228;2023-03-23T16:28:55;3.33;;;2.38;;
21503;SDS011;10913;51.992;9.228;2023-03-23T16:31:20;3.55;;;2.10;;
21503;SDS011;10913;51.992;9.228;2023-03-23T16:33:46;4.60;;;2.50;;
21503;SDS011;10913;51.992;9.228;2023-03-23T16:36:11;4.20;;;3.20;;
21503;SDS011;10913;51.992;9.228;2023-03-23T16:38:37;4.68;;;2.97;;
21503;SDS011;10913;51.992;9.228;2023-03-23T16:41:03;4.18;;;2.80;;
21503;SDS011;10913;51.992;9.228;2023-03-23T16:43:29;4.18;;;3.50;;
21503;SDS011;10913;51.992;9.228;2023-03-23T16:45:55;5.68;;;4.05;;
21503;SDS011;10913;51.992;9.228;2023-03-23T16:48:21;3.70;;;2.90;;
21503;SDS011;10913;51.992;9.228;2023-03-23T16:50:47;5.15;;;2.80;;
21503;SDS011;10913;51.992;9.228;2023-03-23T16:53:13;3.03;;;2.72;;
21503;SDS011;10913;51.992;9.228;2023-03-23T16:55:38;5.15;;;3.08;;
21503;SDS011;10913;51.992;9.228;2023-03-23T16:58:04;3.88;;;2.70;;
21503;SDS011;10913;51.992;9.228;2023-03-23T17:00:31;4.25;;;2.95;;
21503;SDS011;10913;51.992;9.228;2023-03-23T17:02:56;3.08;;;2.78;;
21503;SDS011;10913;51.992;9.228;2023-03-23T17:05:23;2.80;;;2.60;;
21503;SDS011;10913;51.992;9.228;2023-03-23T17:07:50;3.08;;;2.72;;
21503;SDS011;10913;51.992;9.228;2023-03-23T17:10:16;3.10;;;2.80;;
21503;SDS011;10913;51.992;9.228;2023-03-23T17:12:42;4.53;;;2.67;;
21503;SDS011;10913;51.992;9.228;2023-03-23T17:15:08;3.75;;;3.00;;
21503;SDS011;10913;51.992;9.228;2023-03-23T17:17:34;2.90;;;2.60;;
21503;SDS011;10913;51.992;9.228;2023-03-23T17:20:00;4.65;;;3.25;;
21503;SDS011;10913;51.992;9.228;2023-03-23T17:22:26;3.40;;;2.63;;
21503;SDS011;10913;51.992;9.228;2023-03-23T17:24:52;3.17;;;2.65;;